Time;durP1;ratioP1;P1;durP2;ratioP2;P2;SDS_P1;SDS_P2;PMS_P1;PMS_P2;Temp;Humidity;BMP_temperature;BMP_pressure;BME280_temperature;BME280_humidity;BME280_pressure;Samples;Min_cycle;Max_cycle;Signal;HPM_P1;HPM_P2
2022/09/05 00:02:01;;;;;;;6.28;3.90;;;21.20;94.10;;;;;;4894337;29;20085;-86
2022/09/05 00:04:33;;;;;;;5.15;3.10;;;21.20;94.10;;;;;;4877603;29;20065;-86
2022/09/05 00:07:03;;;;;;;3.08;2.78;;;21.20;94.10;;;;;;4894477;29;20041;-85
2022/09/05 00:09:38;;;;;;;4.90;3.88;;;21.20;94.10;;;;;;4877398;29;20037;-86
2022/09/05 00:12:07;;;;;;;2.67;2.53;;;21.10;94.20;;;;;;4894018;29;20063;-86
2022/09/05 00:14:49;;;;;;;6.35;3.53;;;21.10;94.20;;;;;;4894248;29;20475;-86
2022/09/05 00:17:40;;;;;;;3.78;3.47;;;21.10;94.20;;;;;;4894107;29;20041;-85
2022/09/05 00:20:25;;;;;;;3.65;3.40;;;21.10;94.20;;;;;;4877258;29;20025;-85
2022/09/05 00:23:19;;;;;;;4.63;3.80;;;21.00;94.20;;;;;;4876968;29;20029;-86
2022/09/05 00:26:18;;;;;;;4.30;3.58;;;21.00;94.30;;;;;;4877312;29;20040;-86
2022/09/05 00:29:16;;;;;;;3.25;2.95;;;21.00;94.30;;;;;;4882796;29;20036;-85
2022/09/05 00:32:01;;;;;;;6.43;3.25;;;21.00;94.40;;;;;;4895766;29;20124;-85
2022/09/05 00:34:39;;;;;;;3.28;2.97;;;21.00;94.50;;;;;;4895935;29;20047;-86
2022/09/05 00:37:08;;;;;;;3.13;2.75;;;20.90;94.40;;;;;;4895404;29;20033;-85
2022/09/05 00:39:38;;;;;;;4.15;2.95;;;20.90;94.50;;;;;;4854732;29;20498;-86
2022/09/05 00:42:13;;;;;;;3.17;2.88;;;20.90;94.50;;;;;;4874907;29;20054;-86
2022/09/05 00:45:15;;;;;;;3.78;2.97;;;20.90;94.50;;;;;;4858671;29;20133;-86
2022/09/05 00:47:52;;;;;;;4.00;3.35;;;20.90;94.50;;;;;;4844639;29;20045;-86
2022/09/05 00:50:34;;;;;;;3.92;3.63;;;20.80;94.50;;;;;;4858276;29;20042;-86
2022/09/05 00:53:35;;;;;;;3.58;3.30;;;20.80;94.50;;;;;;4863007;29;20067;-86
2022/09/05 00:56:38;;;;;;;5.88;3.15;;;20.80;94.60;;;;;;4893356;29;20033;-86
2022/09/05 00:59:23;;;;;;;3.30;2.72;;;20.80;94.70;;;;;;4876580;29;20033;-85
2022/09/05 01:02:08;;;;;;;5.38;3.17;;;20.80;94.70;;;;;;4893649;29;20096;-86
2022/09/05 01:04:47;;;;;;;3.30;3.10;;;20.80;94.70;;;;;;4876863;29;20037;-86
2022/09/05 01:07:15;;;;;;;5.85;4.03;;;20.70;94.70;;;;;;4876296;29;20041;-85
2022/09/05 01:09:47;;;;;;;3.22;2.92;;;20.70;94.80;;;;;;4892354;29;20025;-85
2022/09/05 01:13:04;;;;;;;3.97;3.63;;;20.70;94.90;;;;;;4876365;29;20036;-85
2022/09/05 01:15:42;;;;;;;2.65;2.45;;;20.70;94.90;;;;;;4853962;29;20117;-85
2022/09/05 01:18:13;;;;;;;5.22;2.55;;;20.70;95.00;;;;;;4854017;29;20030;-85
2022/09/05 01:20:42;;;;;;;4.05;3.60;;;20.60;95.00;;;;;;4880189;29;20041;-85
2022/09/05 01:23:23;;;;;;;4.10;3.70;;;20.60;95.10;;;;;;4893144;29;20058;-85
2022/09/05 01:25:59;;;;;;;3.90;3.53;;;20.60;95.30;;;;;;4876083;29;20104;-86
2022/09/05 01:28:38;;;;;;;3.47;2.67;;;20.60;95.20;;;;;;4893333;29;20077;-85
2022/09/05 01:31:22;;;;;;;4.03;3.35;;;20.60;95.20;;;;;;4911495;29;20066;-86
2022/09/05 01:34:16;;;;;;;5.88;3.42;;;20.50;95.20;;;;;;4894587;29;20028;-85
2022/09/05 01:36:53;;;;;;;4.05;3.70;;;20.50;95.10;;;;;;4894510;29;20053;-85
2022/09/05 01:39:28;;;;;;;4.03;3.15;;;20.50;95.20;;;;;;4888593;29;20040;-86
2022/09/05 01:42:00;;;;;;;3.90;3.47;;;20.50;95.20;;;;;;4875712;29;20052;-85
2022/09/05 01:44:58;;;;;;;4.95;4.53;;;20.50;95.20;;;;;;4875808;29;20037;-85
2022/09/05 01:48:01;;;;;;;4.70;3.80;;;20.50;95.20;;;;;;4892507;29;20096;-85
2022/09/05 01:50:47;;;;;;;4.40;3.67;;;20.40;95.30;;;;;;4892578;29;20025;-85
2022/09/05 01:53:43;;;;;;;3.45;3.22;;;20.40;95.20;;;;;;4875967;29;20048;-85
2022/09/05 01:56:46;;;;;;;4.90;2.83;;;20.40;95.30;;;;;;4862559;29;20057;-85
2022/09/05 01:59:39;;;;;;;3.50;3.20;;;20.40;95.30;;;;;;4888156;29;20044;-86
2022/09/05 02:02:21;;;;;;;4.82;3.80;;;20.40;95.30;;;;;;4894162;29;20057;-85
2022/09/05 02:05:02;;;;;;;3.47;3.17;;;20.40;95.30;;;;;;4910741;29;20040;-85
2022/09/05 02:07:46;;;;;;;6.95;2.95;;;20.30;95.30;;;;;;4884744;29;20119;-86
2022/09/05 02:10:49;;;;;;;3.10;2.90;;;20.30;95.30;;;;;;4857028;29;20029;-86
2022/09/05 02:13:41;;;;;;;3.53;3.13;;;20.30;95.30;;;;;;4873414;29;20033;-85
2022/09/05 02:16:35;;;;;;;3.58;3.17;;;20.30;95.40;;;;;;4857081;29;20107;-85
2022/09/05 02:19:13;;;;;;;6.53;3.30;;;20.20;95.40;;;;;;4873585;29;20030;-85
2022/09/05 02:22:01;;;;;;;4.57;4.07;;;20.20;95.40;;;;;;4873681;29;20108;-85
2022/09/05 02:24:36;;;;;;;6.00;3.72;;;20.20;95.50;;;;;;4871474;29;20044;-85
2022/09/05 02:27:05;;;;;;;3.60;3.30;;;20.20;95.60;;;;;;4875280;29;20052;-85
2022/09/05 02:29:57;;;;;;;3.30;3.00;;;20.20;95.60;;;;;;4882212;29;20035;-86
2022/09/05 02:32:28;;;;;;;5.57;5.07;;;20.20;95.60;;;;;;4893828;29;20041;-86
2022/09/05 02:35:02;;;;;;;4.13;3.58;;;20.10;95.70;;;;;;4893690;29;20033;-85
2022/09/05 02:37:45;;;;;;;2.67;2.53;;;20.10;95.60;;;;;;4884615;29;20510;-85
2022/09/05 02:40:20;;;;;;;4.57;3.83;;;20.10;95.70;;;;;;4875086;29;20096;-85
2022/09/05 02:42:51;;;;;;;3.92;3.60;;;20.10;95.60;;;;;;4875322;29;20104;-86
2022/09/05 02:45:54;;;;;;;4.47;4.07;;;20.10;95.60;;;;;;4874974;29;20065;-85
2022/09/05 02:48:23;;;;;;;4.50;3.05;;;20.00;95.60;;;;;;4866684;29;20049;-86
2022/09/05 02:51:00;;;;;;;3.55;3.22;;;20.00;95.60;;;;;;4874956;29;20550;-85
2022/09/05 02:53:27;;;;;;;4.05;3.72;;;20.00;95.60;;;;;;4895512;29;20040;-86
2022/09/05 02:56:02;;;;;;;13.63;4.43;;;20.10;95.70;;;;;;4878765;29;20123;-86
2022/09/05 02:58:43;;;;;;;3.90;3.40;;;20.00;95.70;;;;;;4878817;29;20033;-85
2022/09/05 03:01:24;;;;;;;5.63;3.85;;;20.00;95.70;;;;;;4878708;29;20482;-85
2022/09/05 03:04:10;;;;;;;3.90;3.50;;;20.00;95.70;;;;;;4878838;29;20056;-85
2022/09/05 03:06:57;;;;;;;5.10;3.03;;;20.00;95.70;;;;;;4878530;29;20085;-86
2022/09/05 03:09:45;;;;;;;3.90;3.55;;;20.00;95.80;;;;;;4878569;29;20037;-85
2022/09/05 03:12:52;;;;;;;5.90;3.47;;;19.90;95.70;;;;;;4878632;29;20542;-85
2022/09/05 03:15:37;;;;;;;5.65;3.47;;;19.90;95.80;;;;;;4878507;29;20396;-85
2022/09/05 03:18:42;;;;;;;3.95;3.65;;;19.90;95.80;;;;;;4878573;29;20040;-85
2022/09/05 03:21:40;;;;;;;4.78;4.35;;;19.90;95.70;;;;;;4862985;29;20029;-85
2022/09/05 03:24:39;;;;;;;4.47;2.90;;;19.90;95.80;;;;;;4895293;29;20040;-85
2022/09/05 03:27:10;;;;;;;3.80;3.45;;;19.80;95.80;;;;;;4878287;29;20033;-85
2022/09/05 03:30:16;;;;;;;5.03;3.97;;;19.80;95.80;;;;;;4886001;29;20036;-85
2022/09/05 03:33:13;;;;;;;4.50;4.15;;;19.80;95.80;;;;;;4913658;29;20040;-86
2022/09/05 03:36:27;;;;;;;3.75;3.15;;;19.80;95.70;;;;;;4894206;29;20032;-85
2022/09/05 03:39:11;;;;;;;8.23;3.50;;;19.80;95.80;;;;;;4894685;29;20041;-85
2022/09/05 03:41:54;;;;;;;4.00;3.70;;;19.70;95.80;;;;;;4894679;29;20045;-86
2022/09/05 03:44:33;;;;;;;4.10;3.50;;;19.70;95.80;;;;;;4894573;29;20033;-85
2022/09/05 03:47:26;;;;;;;3.92;3.63;;;19.70;95.80;;;;;;4878030;29;20036;-85
2022/09/05 03:50:20;;;;;;;4.15;3.85;;;19.70;95.70;;;;;;4877875;29;20053;-86
2022/09/05 03:53:07;;;;;;;4.32;3.92;;;19.70;95.80;;;;;;4894219;29;20081;-85
2022/09/05 03:56:04;;;;;;;3.05;2.85;;;19.70;95.80;;;;;;4894463;29;20025;-85
2022/09/05 03:58:40;;;;;;;4.00;3.50;;;19.70;95.80;;;;;;4877588;29;20037;-85
2022/09/05 04:01:19;;;;;;;4.30;3.42;;;19.60;96.00;;;;;;4877807;29;20033;-85
2022/09/05 04:03:51;;;;;;;3.77;3.43;;;19.60;95.70;;;;;;4877491;29;20032;-85
2022/09/05 04:06:28;;;;;;;4.50;4.10;;;19.60;95.70;;;;;;4894316;29;20025;-85
2022/09/05 04:09:00;;;;;;;5.60;4.10;;;19.60;95.80;;;;;;4877876;29;20033;-85
2022/09/05 04:11:37;;;;;;;4.47;4.18;;;19.60;95.80;;;;;;4894236;29;20040;-85
2022/09/05 04:14:12;;;;;;;4.40;3.97;;;19.60;95.80;;;;;;4894210;29;20041;-85
2022/09/05 04:16:59;;;;;;;3.40;2.90;;;19.50;95.70;;;;;;4877507;29;20037;-85
2022/09/05 04:19:40;;;;;;;9.32;3.53;;;19.50;95.80;;;;;;4877395;29;20029;-85
2022/09/05 04:22:18;;;;;;;4.03;3.22;;;19.50;95.80;;;;;;4893912;29;20411;-86
2022/09/05 04:25:01;;;;;;;7.13;3.28;;;19.50;95.90;;;;;;4877061;29;20036;-85
2022/09/05 04:28:04;;;;;;;5.00;4.00;;;19.50;95.90;;;;;;4877260;29;20029;-86
2022/09/05 04:30:48;;;;;;;4.80;4.00;;;19.50;95.90;;;;;;4905624;29;20036;-85
2022/09/05 04:33:18;;;;;;;4.68;3.53;;;19.50;95.90;;;;;;4895504;29;20032;-85
2022/09/05 04:36:42;;;;;;;4.15;3.78;;;19.40;96.00;;;;;;4891079;29;20035;-85
2022/09/05 04:39:24;;;;;;;8.13;4.10;;;19.40;95.90;;;;;;4854782;29;20166;-85
2022/09/05 04:41:53;;;;;;;5.00;4.57;;;19.40;95.90;;;;;;4888457;29;20041;-85
2022/09/05 04:44:28;;;;;;;9.45;4.00;;;19.40;95.90;;;;;;4876846;29;20021;-85
2022/09/05 04:47:07;;;;;;;4.60;3.75;;;19.40;96.20;;;;;;4887799;29;20037;-82
2022/09/05 04:49:39;;;;;;;5.20;4.32;;;19.40;96.00;;;;;;4874195;29;20065;-83
2022/09/05 04:52:31;;;;;;;6.70;4.20;;;19.40;96.00;;;;;;4894513;29;20037;-83
2022/09/05 04:55:24;;;;;;;4.78;4.43;;;19.40;97.90;;;;;;4840515;29;20040;-82
2022/09/05 04:57:59;;;;;;;4.50;3.53;;;19.30;96.10;;;;;;4880361;29;20053;-83
2022/09/05 05:00:46;;;;;;;4.90;4.53;;;19.30;96.00;;;;;;4876473;29;20101;-83
2022/09/05 05:03:16;;;;;;;4.40;4.07;;;19.30;96.00;;;;;;4876181;29;20058;-83
2022/09/05 05:05:46;;;;;;;4.45;4.05;;;19.30;96.00;;;;;;4875805;29;20065;-83
2022/09/05 05:08:32;;;;;;;9.18;4.20;;;19.30;96.00;;;;;;4884412;29;20029;-83
2022/09/05 05:11:10;;;;;;;6.93;4.95;;;19.30;98.00;;;;;;4866509;29;20029;-83
2022/09/05 05:13:46;;;;;;;4.30;3.92;;;19.30;96.10;;;;;;4859115;29;20456;-83
2022/09/05 05:16:30;;;;;;;3.65;3.38;;;19.20;96.10;;;;;;4869178;29;20057;-83
2022/09/05 05:19:15;;;;;;;4.47;4.18;;;19.20;96.10;;;;;;4848303;29;20073;-83
2022/09/05 05:21:52;;;;;;;5.32;4.82;;;19.50;96.60;;;;;;4873901;29;20029;-82
2022/09/05 05:24:35;;;;;;;4.28;3.92;;;19.20;96.20;;;;;;4857337;29;20033;-83
2022/09/05 05:27:10;;;;;;;6.95;4.70;;;19.20;96.20;;;;;;4879739;29;20032;-83
2022/09/05 05:29:56;;;;;;;5.53;4.75;;;19.20;96.50;;;;;;4875617;29;20037;-83
2022/09/05 05:32:29;;;;;;;6.55;3.92;;;19.10;96.80;;;;;;4887563;29;20063;-83
2022/09/05 05:35:34;;;;;;;6.05;5.50;;;19.10;99.10;;;;;;4875944;29;20037;-84
2022/09/05 05:38:17;;;;;;;5.13;4.63;;;19.00;97.00;;;;;;4817479;29;20068;-85
2022/09/05 05:41:18;;;;;;;6.95;5.75;;;18.90;97.10;;;;;;4815809;29;20046;-85
2022/09/05 05:43:53;;;;;;;5.28;4.78;;;19.00;97.50;;;;;;4862310;29;20414;-85
2022/09/05 05:46:54;;;;;;;6.78;6.13;;;17.80;97.30;;;;;;4838975;29;20037;-86
2022/09/05 05:50:00;;;;;;;14.48;5.75;;;18.80;97.30;;;;;;4853338;29;20054;-83
2022/09/05 05:53:07;;;;;;;9.05;5.88;;;18.80;97.60;;;;;;4853510;29;20042;-84
2022/09/05 05:56:33;;;;;;;5.90;5.40;;;18.80;97.60;;;;;;4854712;29;20042;-83
2022/09/05 05:59:31;;;;;;;8.40;5.38;;;18.80;97.70;;;;;;4836507;29;20038;-83
2022/09/05 06:02:28;;;;;;;5.78;4.68;;;18.80;97.90;;;;;;4862452;29;20030;-84
2022/09/05 06:05:31;;;;;;;6.18;5.57;;;18.80;98.00;;;;;;4852061;29;20050;-83
2022/09/05 06:08:27;;;;;;;5.57;5.07;;;18.80;98.00;;;;;;4866225;29;20031;-83
2022/09/05 06:11:43;;;;;;;6.57;5.75;;;18.90;98.00;;;;;;4849481;29;20050;-83
2022/09/05 06:14:37;;;;;;;5.38;4.85;;;18.90;98.10;;;;;;4853283;29;20049;-83
2022/09/05 06:17:37;;;;;;;7.22;5.05;;;18.90;98.20;;;;;;4839538;29;20055;-84
2022/09/05 06:20:51;;;;;;;6.75;4.97;;;18.90;98.10;;;;;;4853008;29;20027;-83
2022/09/05 06:24:06;;;;;;;6.95;4.25;;;18.90;98.10;;;;;;4852705;29;20484;-83
2022/09/05 06:27:03;;;;;;;9.55;6.30;;;19.40;98.40;;;;;;4851983;29;20041;-83
2022/09/05 06:29:44;;;;;;;7.72;5.22;;;19.00;98.40;;;;;;4851820;29;20042;-83
2022/09/05 06:32:32;;;;;;;5.13;4.63;;;19.00;98.40;;;;;;4837566;29;20036;-84
2022/09/05 06:35:41;;;;;;;4.03;3.72;;;19.00;98.40;;;;;;4853025;29;20480;-84
2022/09/05 06:38:13;;;;;;;4.57;4.18;;;19.00;98.50;;;;;;4854527;29;20034;-84
2022/09/05 06:41:12;;;;;;;4.15;3.85;;;19.00;98.50;;;;;;4850626;29;20030;-84
2022/09/05 06:43:59;;;;;;;4.63;4.25;;;19.10;98.30;;;;;;4872410;29;20073;-84
2022/09/05 06:46:33;;;;;;;10.70;3.97;;;19.10;98.30;;;;;;4870329;29;20108;-84
2022/09/05 06:49:11;;;;;;;6.38;4.60;;;19.20;98.30;;;;;;4891266;29;20029;-84
2022/09/05 06:51:53;;;;;;;4.55;4.15;;;19.20;98.30;;;;;;4890975;29;20033;-84
2022/09/05 06:54:29;;;;;;;5.28;4.88;;;19.20;98.20;;;;;;4874830;29;20120;-84
2022/09/05 06:57:10;;;;;;;7.82;4.05;;;19.20;98.20;;;;;;4874747;29;20097;-84
2022/09/05 06:59:45;;;;;;;3.83;3.42;;;19.20;98.10;;;;;;4874806;29;20048;-84
2022/09/05 07:02:22;;;;;;;5.75;4.20;;;19.30;98.10;;;;;;4874580;29;20395;-84
2022/09/05 07:05:22;;;;;;;4.55;3.92;;;19.30;97.90;;;;;;4874631;29;20036;-84
2022/09/05 07:07:54;;;;;;;6.35;3.58;;;19.40;98.00;;;;;;4869341;29;20065;-84
2022/09/05 07:10:48;;;;;;;4.47;2.20;;;18.90;99.80;;;;;;4860132;29;20021;-83
2022/09/05 07:13:32;;;;;;;3.50;2.78;;;19.40;98.00;;;;;;4891386;29;20033;-84
2022/09/05 07:16:16;;;;;;;3.00;2.80;;;19.50;97.70;;;;;;4859392;29;20025;-84
2022/09/05 07:19:14;;;;;;;3.95;3.22;;;19.50;97.70;;;;;;4875413;29;20120;-85
2022/09/05 07:21:46;;;;;;;2.33;2.15;;;19.50;97.70;;;;;;4874706;29;20033;-85
2022/09/05 07:24:18;;;;;;;2.90;2.15;;;19.50;97.40;;;;;;4874606;29;20471;-84
2022/09/05 07:26:46;;;;;;;2.28;2.17;;;19.50;97.50;;;;;;4874654;29;20037;-85
2022/09/05 07:29:21;;;;;;;2.55;2.35;;;19.60;97.70;;;;;;4889229;29;20123;-84
2022/09/05 07:31:53;;;;;;;3.30;2.20;;;19.60;97.80;;;;;;4889353;29;20041;-84
2022/09/05 07:34:42;;;;;;;4.22;2.70;;;19.60;97.70;;;;;;4876543;29;20053;-84
2022/09/05 07:37:20;;;;;;;3.90;2.72;;;19.70;97.40;;;;;;4891240;29;20061;-84
2022/09/05 07:40:13;;;;;;;5.28;2.45;;;19.70;97.30;;;;;;4878322;29;20028;-84
2022/09/05 07:42:52;;;;;;;3.72;2.25;;;19.70;97.00;;;;;;4859866;29;20049;-84
2022/09/05 07:45:28;;;;;;;1.75;1.65;;;19.80;97.10;;;;;;4863223;29;20093;-84
2022/09/05 07:48:06;;;;;;;3.17;1.80;;;19.70;96.90;;;;;;4858723;29;20038;-84
2022/09/05 07:50:45;;;;;;;3.08;2.10;;;19.80;96.90;;;;;;4877765;29;20044;-84
2022/09/05 07:53:15;;;;;;;1.85;1.75;;;19.90;97.10;;;;;;4877441;29;20040;-85
2022/09/05 07:55:41;;;;;;;6.07;2.95;;;19.90;97.30;;;;;;4877625;29;20028;-84
2022/09/05 07:58:11;;;;;;;4.00;3.20;;;19.90;97.00;;;;;;4877955;29;20032;-84
2022/09/05 08:00:38;;;;;;;4.00;2.28;;;19.90;96.80;;;;;;4877579;29;20025;-84
2022/09/05 08:03:13;;;;;;;2.30;2.10;;;20.00;97.00;;;;;;4877262;29;20120;-84
2022/09/05 08:05:46;;;;;;;2.47;1.98;;;20.00;97.00;;;;;;4877457;29;20096;-84
2022/09/05 08:08:19;;;;;;;2.33;2.22;;;20.10;97.00;;;;;;4877467;29;20033;-85
2022/09/05 08:10:54;;;;;;;1.83;1.73;;;20.10;96.90;;;;;;4877346;29;20040;-84
2022/09/05 08:13:42;;;;;;;4.95;1.83;;;20.20;96.70;;;;;;4876958;29;20033;-84
2022/09/05 08:16:15;;;;;;;4.40;2.90;;;20.20;97.00;;;;;;4877559;29;20037;-84
2022/09/05 08:18:54;;;;;;;4.15;2.45;;;20.30;97.30;;;;;;4862002;29;20025;-84
2022/09/05 08:21:40;;;;;;;4.20;1.73;;;20.30;96.90;;;;;;4893994;29;20033;-84
2022/09/05 08:24:19;;;;;;;2.20;2.00;;;20.30;96.90;;;;;;4893778;29;20048;-84
2022/09/05 08:27:06;;;;;;;4.60;2.63;;;20.40;97.00;;;;;;4877139;29;20084;-84
2022/09/05 08:29:34;;;;;;;1.80;1.70;;;20.40;97.00;;;;;;4858895;29;20030;-84
2022/09/05 08:32:36;;;;;;;5.57;2.40;;;20.50;96.90;;;;;;4890262;29;20394;-85
2022/09/05 08:35:12;;;;;;;3.38;2.28;;;20.60;96.90;;;;;;4865377;29;20097;-85
2022/09/05 08:37:38;;;;;;;2.30;2.05;;;20.60;96.80;;;;;;4876986;29;20391;-85
2022/09/05 08:40:34;;;;;;;2.92;2.40;;;20.60;96.80;;;;;;4876617;29;20029;-85
2022/09/05 08:43:21;;;;;;;1.88;1.77;;;20.60;96.80;;;;;;4893801;29;20053;-86
2022/09/05 08:46:07;;;;;;;5.60;1.67;;;20.60;97.00;;;;;;4880867;29;20044;-84
2022/09/05 08:48:51;;;;;;;4.05;2.13;;;20.70;97.10;;;;;;4875898;29;20037;-84
2022/09/05 08:51:27;;;;;;;3.08;1.67;;;20.70;97.20;;;;;;4892483;29;20029;-84
2022/09/05 08:54:18;;;;;;;4.25;1.85;;;20.60;97.10;;;;;;4875912;29;20033;-84
2022/09/05 08:56:56;;;;;;;8.23;2.20;;;20.70;97.10;;;;;;4878797;29;20033;-84
2022/09/05 08:59:44;;;;;;;2.35;1.77;;;20.70;97.10;;;;;;4878955;29;20080;-84
2022/09/05 09:02:39;;;;;;;3.40;2.08;;;20.80;97.10;;;;;;4879201;29;20048;-84
2022/09/05 09:05:11;;;;;;;3.50;1.83;;;21.00;97.00;;;;;;4851159;29;20049;-84
2022/09/05 09:07:55;;;;;;;2.67;1.88;;;21.10;96.80;;;;;;4879307;29;20040;-84
2022/09/05 09:10:30;;;;;;;2.17;1.85;;;21.10;96.80;;;;;;4879141;29;20044;-84
2022/09/05 09:13:11;;;;;;;1.63;1.52;;;21.20;96.70;;;;;;4879234;29;20041;-84
2022/09/05 09:15:44;;;;;;;4.60;2.15;;;21.30;96.60;;;;;;4896060;29;20029;-84
2022/09/05 09:18:15;;;;;;;3.33;1.92;;;21.40;96.60;;;;;;4895684;29;20033;-85
2022/09/05 09:20:56;;;;;;;2.58;1.90;;;21.50;96.50;;;;;;4895972;29;20037;-84
2022/09/05 09:23:36;;;;;;;3.20;1.45;;;21.60;96.60;;;;;;4879164;29;20051;-84
2022/09/05 09:26:14;;;;;;;7.25;2.65;;;21.70;96.40;;;;;;4879101;29;20248;-84
2022/09/05 09:28:54;;;;;;;1.80;1.65;;;21.80;96.30;;;;;;4895424;29;20029;-84
2022/09/05 09:31:23;;;;;;;17.85;4.50;;;21.90;96.10;;;;;;4878123;29;20479;-84
2022/09/05 09:34:02;;;;;;;85.15;23.88;;;21.90;96.00;;;;;;4878683;29;20037;-85
2022/09/05 09:36:43;;;;;;;66.03;18.63;;;22.00;95.90;;;;;;4878657;29;20025;-85
2022/09/05 09:39:30;;;;;;;57.83;16.80;;;22.10;95.70;;;;;;4864042;29;20044;-84
2022/09/05 09:42:29;;;;;;;30.05;9.70;;;22.20;95.50;;;;;;4878848;29;20037;-84
2022/09/05 09:45:10;;;;;;;32.70;6.95;;;22.40;96.40;;;;;;4879499;29;20033;-84
2022/09/05 09:47:41;;;;;;;13.60;5.32;;;22.40;94.80;;;;;;4879429;29;20060;-84
2022/09/05 09:50:35;;;;;;;13.15;3.72;;;22.50;96.00;;;;;;4879564;29;20116;-84
2022/09/05 09:53:04;;;;;;;8.05;3.17;;;22.40;94.30;;;;;;4892759;29;20048;-84
2022/09/05 09:55:54;;;;;;;187.65;41.05;;;22.40;94.20;;;;;;4878900;29;20029;-85
2022/09/05 09:58:35;;;;;;;;;;;22.40;94.20;;;;;;4879092;29;20032;-85
2022/09/05 10:01:01;;;;;;;96.60;27.83;;;22.60;93.70;;;;;;4895711;29;19912;-85
2022/09/05 10:03:43;;;;;;;95.10;20.50;;;22.70;93.50;;;;;;4878373;29;20089;-84
2022/09/05 10:06:49;;;;;;;60.33;12.00;;;22.80;93.30;;;;;;4877538;29;20037;-84
2022/09/05 10:09:33;;;;;;;40.78;8.02;;;23.00;93.20;;;;;;4879162;29;20104;-84
2022/09/05 10:12:37;;;;;;;18.45;5.65;;;23.20;92.80;;;;;;4878611;29;20084;-84
2022/09/05 10:15:25;;;;;;;15.52;3.38;;;23.20;92.20;;;;;;4878736;29;20067;-84
2022/09/05 10:18:16;;;;;;;4.95;2.58;;;23.30;92.20;;;;;;4878204;29;20033;-84
2022/09/05 10:21:03;;;;;;;4.70;2.20;;;23.50;91.80;;;;;;4867280;29;20040;-84
2022/09/05 10:23:40;;;;;;;2.67;2.17;;;23.50;91.60;;;;;;4875080;29;20101;-84
2022/09/05 10:26:15;;;;;;;4.75;1.83;;;23.60;91.40;;;;;;4875999;29;20044;-84
2022/09/05 10:28:57;;;;;;;1.15;1.13;;;23.80;91.10;;;;;;4858949;29;20041;-84
2022/09/05 10:31:36;;;;;;;7.38;1.55;;;23.80;91.00;;;;;;4875771;29;20089;-84
2022/09/05 10:34:21;;;;;;;1.80;1.05;;;23.90;90.80;;;;;;4892598;29;20025;-84
2022/09/05 10:36:58;;;;;;;1.92;1.42;;;24.00;90.50;;;;;;4877916;29;20360;-84
2022/09/05 10:39:28;;;;;;;0.98;0.95;;;24.10;90.20;;;;;;4877597;29;20054;-84
2022/09/05 10:42:01;;;;;;;2.90;1.25;;;24.20;90.10;;;;;;4894600;29;20049;-84
2022/09/05 10:44:47;;;;;;;3.60;1.75;;;24.30;90.20;;;;;;4878410;29;20033;-84
2022/09/05 10:47:13;;;;;;;0.93;0.93;;;24.40;90.10;;;;;;4881083;29;20056;-84
2022/09/05 10:49:47;;;;;;;1.90;0.93;;;24.50;90.00;;;;;;4878043;29;20060;-84
2022/09/05 10:52:32;;;;;;;2.00;1.33;;;24.50;90.00;;;;;;4863140;29;20045;-84
2022/09/05 10:55:09;;;;;;;3.85;1.52;;;24.70;89.90;;;;;;4895496;29;20026;-84
2022/09/05 10:57:59;;;;;;;2.58;1.40;;;24.80;89.70;;;;;;4889620;29;20036;-84
2022/09/05 11:00:43;;;;;;;2.08;1.20;;;24.90;88.90;;;;;;4876473;29;20033;-84
2022/09/05 11:03:17;;;;;;;3.55;1.30;;;24.90;89.10;;;;;;4880569;29;20033;-86
2022/09/05 11:05:56;;;;;;;0.90;0.90;;;25.00;88.40;;;;;;4891436;29;20471;-86
2022/09/05 11:08:54;;;;;;;1.23;1.13;;;25.10;88.10;;;;;;4891554;29;20029;-85
2022/09/05 11:11:24;;;;;;;0.95;0.95;;;25.10;87.70;;;;;;4860384;29;20045;-85
2022/09/05 11:13:53;;;;;;;;;;;25.20;87.70;;;;;;4877556;29;20025;-85
2022/09/05 11:16:19;;;;;;;4.20;1.05;;;25.30;87.80;;;;;;4912730;29;19912;-86
2022/09/05 11:19:06;;;;;;;3.80;1.35;;;25.40;87.40;;;;;;4897356;29;20038;-86
2022/09/05 11:21:42;;;;;;;2.55;1.30;;;25.40;87.10;;;;;;4914063;29;20035;-86
2022/09/05 11:24:18;;;;;;;3.03;1.45;;;25.50;87.00;;;;;;4913992;29;20040;-86
2022/09/05 11:27:00;;;;;;;1.55;1.05;;;25.60;87.10;;;;;;4913046;29;20096;-85
2022/09/05 11:29:44;;;;;;;1.90;1.30;;;25.60;86.70;;;;;;4895448;29;20471;-85
2022/09/05 11:32:38;;;;;;;2.58;1.17;;;25.70;86.60;;;;;;4878246;29;20033;-85
2022/09/05 11:35:09;;;;;;;1.88;1.58;;;25.80;86.20;;;;;;4878015;29;20119;-86
2022/09/05 11:38:03;;;;;;;1.83;1.35;;;25.90;85.90;;;;;;4893544;29;20436;-86
2022/09/05 11:40:40;;;;;;;1.42;0.93;;;26.00;85.90;;;;;;4894331;29;20036;-86
2022/09/05 11:43:37;;;;;;;20.90;2.03;;;26.10;85.60;;;;;;4894289;29;20032;-86
2022/09/05 11:46:18;;;;;;;1.00;0.88;;;26.20;85.50;;;;;;4862522;29;20101;-86
2022/09/05 11:49:06;;;;;;;1.38;1.27;;;26.30;85.20;;;;;;4877794;29;20045;-86
2022/09/05 11:51:44;;;;;;;1.15;0.77;;;26.30;85.00;;;;;;4877168;29;20097;-85
2022/09/05 11:54:34;;;;;;;0.82;0.80;;;26.40;84.80;;;;;;4863556;29;20034;-84
2022/09/05 11:57:41;;;;;;;1.08;0.95;;;26.40;84.60;;;;;;4863526;29;20101;-85
2022/09/05 12:00:17;;;;;;;1.17;1.08;;;26.60;84.90;;;;;;4862867;29;20044;-84
2022/09/05 12:03:10;;;;;;;6.90;1.10;;;26.60;84.90;;;;;;4863560;29;20044;-84
2022/09/05 12:05:58;;;;;;;2.05;1.50;;;26.60;84.40;;;;;;4853070;29;20117;-85
2022/09/05 12:08:57;;;;;;;1.55;1.38;;;26.70;84.50;;;;;;4882161;29;20037;-85
2022/09/05 12:11:45;;;;;;;1.42;1.33;;;26.70;84.70;;;;;;4881941;29;20056;-84
2022/09/05 12:14:36;;;;;;;1.10;1.10;;;26.80;84.70;;;;;;4881494;29;20037;-84
2022/09/05 12:17:10;;;;;;;1.00;0.90;;;26.90;84.60;;;;;;4881103;29;20029;-84
2022/09/05 12:19:40;;;;;;;2.25;1.60;;;26.90;84.40;;;;;;4882123;29;20071;-84
2022/09/05 12:22:21;;;;;;;2.53;1.67;;;26.90;84.10;;;;;;4898088;29;20088;-84
2022/09/05 12:24:56;;;;;;;4.45;1.20;;;26.80;84.40;;;;;;4880732;29;20044;-84
2022/09/05 12:27:28;;;;;;;2.33;1.70;;;26.60;84.50;;;;;;4880979;29;20033;-85
2022/09/05 12:29:58;;;;;;;3.42;1.45;;;26.70;84.60;;;;;;4880382;29;20029;-84
2022/09/05 12:32:24;;;;;;;1.83;1.10;;;26.70;84.50;;;;;;4889266;29;20100;-84
2022/09/05 12:34:57;;;;;;;1.33;1.23;;;26.70;84.10;;;;;;4915944;29;20052;-84
2022/09/05 12:37:26;;;;;;;1.48;1.38;;;26.80;84.30;;;;;;4846773;29;20026;-84
2022/09/05 12:40:08;;;;;;;1.55;1.35;;;26.80;84.30;;;;;;4861997;29;20120;-84
2022/09/05 12:42:56;;;;;;;2.97;1.27;;;27.00;84.10;;;;;;4883428;29;20057;-84
2022/09/05 12:45:40;;;;;;;1.67;1.00;;;27.00;84.00;;;;;;4881000;29;20029;-84
2022/09/05 12:48:13;;;;;;;2.53;1.20;;;27.00;84.10;;;;;;4880817;29;20039;-84
2022/09/05 12:51:06;;;;;;;1.45;1.23;;;27.10;83.60;;;;;;4880299;29;20037;-85
2022/09/05 12:54:00;;;;;;;1.20;1.10;;;27.20;83.50;;;;;;4880979;29;20039;-84
2022/09/05 12:56:55;;;;;;;1.55;1.40;;;27.20;83.30;;;;;;4896589;29;20029;-84
2022/09/05 12:59:25;;;;;;;1.77;1.55;;;27.30;83.30;;;;;;4880200;29;20116;-85
2022/09/05 13:02:06;;;;;;;1.23;1.05;;;27.30;83.10;;;;;;4897866;29;20062;-85
2022/09/05 13:04:45;;;;;;;1.48;1.38;;;27.30;83.20;;;;;;4896897;29;20096;-84
2022/09/05 13:07:20;;;;;;;3.10;1.75;;;27.30;83.20;;;;;;4896801;29;20173;-84
2022/09/05 13:09:56;;;;;;;2.03;1.25;;;27.40;83.00;;;;;;4897936;29;20166;-84
2022/09/05 13:12:29;;;;;;;1.35;1.25;;;27.40;82.50;;;;;;4880797;29;20410;-84
2022/09/05 13:15:17;;;;;;;1.92;1.10;;;27.30;82.80;;;;;;4897706;29;20033;-84
2022/09/05 13:17:52;;;;;;;1.42;1.10;;;27.30;82.70;;;;;;4896994;29;20390;-84
2022/09/05 13:20:31;;;;;;;1.35;1.25;;;27.40;82.70;;;;;;4878069;29;20097;-85
2022/09/05 13:23:07;;;;;;;6.32;1.85;;;27.50;82.30;;;;;;4877396;29;20032;-85
2022/09/05 13:25:35;;;;;;;4.90;1.42;;;27.50;82.30;;;;;;4876199;29;20037;-84
2022/09/05 13:28:05;;;;;;;2.15;1.40;;;27.50;82.80;;;;;;4883465;29;20115;-84
2022/09/05 13:30:37;;;;;;;2.85;1.48;;;27.50;82.30;;;;;;4888179;29;20089;-86
2022/09/05 13:33:12;;;;;;;3.05;0.85;;;27.50;81.80;;;;;;4892615;29;20041;-86
2022/09/05 13:35:52;;;;;;;1.00;0.90;;;27.40;81.80;;;;;;4875556;29;20044;-87
2022/09/05 13:38:26;;;;;;;2.50;1.40;;;27.30;82.00;;;;;;4876200;29;20025;-87
2022/09/05 13:40:56;;;;;;;1.40;1.30;;;27.20;81.90;;;;;;4875968;29;20036;-87
2022/09/05 13:43:36;;;;;;;10.55;1.55;;;27.20;81.90;;;;;;4892495;29;20064;-86
2022/09/05 13:46:18;;;;;;;3.03;0.63;;;27.20;81.60;;;;;;4889983;29;20045;-86
2022/09/05 13:48:56;;;;;;;2.75;1.02;;;27.20;82.00;;;;;;4894738;29;20072;-86
2022/09/05 13:51:27;;;;;;;1.85;1.38;;;27.20;81.90;;;;;;4878193;29;20464;-86
2022/09/05 13:54:17;;;;;;;1.45;1.35;;;27.10;81.20;;;;;;4877510;29;20037;-86
2022/09/05 13:57:20;;;;;;;2.65;1.13;;;27.00;81.50;;;;;;4877553;29;20040;-86
2022/09/05 14:00:05;;;;;;;1.08;1.08;;;27.00;81.80;;;;;;4878503;29;20089;-85
2022/09/05 14:03:01;;;;;;;1.27;1.17;;;26.90;81.80;;;;;;4862559;29;20033;-86
2022/09/05 14:05:47;;;;;;;1.38;1.27;;;26.90;82.00;;;;;;4895497;29;20053;-86
2022/09/05 14:08:34;;;;;;;3.50;1.45;;;27.00;82.10;;;;;;4879694;29;20041;-86